sensor_id;sensor_type;location;lat;lon;timestamp;temperature;humidity
23237;DHT22;11787;52.018;8.570;2023-04-15T00:01:29;7.00;99.90
23237;DHT22;11787;52.018;8.570;2023-04-15T00:03:58;7.00;99.90
23237;DHT22;11787;52.018;8.570;2023-04-15T00:06:23;7.00;99.90
23237;DHT22;11787;52.018;8.570;2023-04-15T00:08:49;7.00;99.90
23237;DHT22;11787;52.018;8.570;2023-04-15T00:11:17;7.00;99.90
23237;DHT22;11787;52.018;8.570;2023-04-15T00:13:44;7.10;99.90
23237;DHT22;11787;52.018;8.570;2023-04-15T00:16:10;7.10;99.90
23237;DHT22;11787;52.018;8.570;2023-04-15T00:18:37;7.10;99.90
23237;DHT22;11787;52.018;8.570;2023-04-15T00:21:04;7.10;99.90
23237;DHT22;11787;52.018;8.570;2023-04-15T00:23:29;7.10;99.90
23237;DHT22;11787;52.018;8.570;2023-04-15T00:25:55;7.00;99.90
23237;DHT22;11787;52.018;8.570;2023-04-15T00:28:21;7.00;99.90
23237;DHT22;11787;52.018;8.570;2023-04-15T00:30:47;7.00;99.90
23237;DHT22;11787;52.018;8.570;2023-04-15T00:33:13;7.00;99.90
23237;DHT22;11787;52.018;8.570;2023-04-15T00:35:39;7.10;99.90
23237;DHT22;11787;52.018;8.570;2023-04-15T00:38:05;7.10;99.90
23237;DHT22;11787;52.018;8.570;2023-04-15T00:40:32;7.00;99.90
23237;DHT22;11787;52.018;8.570;2023-04-15T00:42:58;7.00;99.90
23237;DHT22;11787;52.018;8.570;2023-04-15T00:45:25;7.00;99.90
23237;DHT22;11787;52.018;8.570;2023-04-15T00:47:52;7.00;99.90
23237;DHT22;11787;52.018;8.570;2023-04-15T00:50:18;6.90;99.90
23237;DHT22;11787;52.018;8.570;2023-04-15T00:52:44;6.90;99.90
23237;DHT22;11787;52.018;8.570;2023-04-15T00:55:09;6.90;99.90
23237;DHT22;11787;52.018;8.570;2023-04-15T00:57:35;6.90;99.90
23237;DHT22;11787;52.018;8.570;2023-04-15T01:00:01;6.90;99.90
23237;DHT22;11787;52.018;8.570;2023-04-15T01:02:29;6.90;99.90
23237;DHT22;11787;52.018;8.570;2023-04-15T01:04:56;6.90;99.90
23237;DHT22;11787;52.018;8.570;2023-04-15T01:07:21;6.90;99.90
23237;DHT22;11787;52.018;8.570;2023-04-15T01:09:47;6.90;99.90
23237;DHT22;11787;52.018;8.570;2023-04-15T01:12:13;6.90;99.90
23237;DHT22;11787;52.018;8.570;2023-04-15T01:14:40;6.90;99.90
23237;DHT22;11787;52.018;8.570;2023-04-15T01:17:06;6.90;99.90
23237;DHT22;11787;52.018;8.570;2023-04-15T01:19:32;6.80;99.90
23237;DHT22;11787;52.018;8.570;2023-04-15T01:21:57;6.80;99.90
23237;DHT22;11787;52.018;8.570;2023-04-15T01:24:25;6.80;99.90
23237;DHT22;11787;52.018;8.570;2023-04-15T01:26:52;6.80;99.90
23237;DHT22;11787;52.018;8.570;2023-04-15T01:29:18;6.80;99.90
23237;DHT22;11787;52.018;8.570;2023-04-15T01:31:51;6.80;99.90
23237;DHT22;11787;52.018;8.570;2023-04-15T01:34:17;6.70;99.90
23237;DHT22;11787;52.018;8.570;2023-04-15T01:36:43;6.80;99.90
23237;DHT22;11787;52.018;8.570;2023-04-15T01:39:08;6.80;99.90
23237;DHT22;11787;52.018;8.570;2023-04-15T01:41:34;6.80;99.90
23237;DHT22;11787;52.018;8.570;2023-04-15T01:44:00;6.80;99.90
23237;DHT22;11787;52.018;8.570;2023-04-15T01:46:26;6.80;99.90
23237;DHT22;11787;52.018;8.570;2023-04-15T01:48:52;6.80;99.90
23237;DHT22;11787;52.018;8.570;2023-04-15T01:51:17;6.70;99.90
23237;DHT22;11787;52.018;8.570;2023-04-15T01:53:43;6.80;99.90
23237;DHT22;11787;52.018;8.570;2023-04-15T01:56:09;6.80;99.90
23237;DHT22;11787;52.018;8.570;2023-04-15T01:58:35;6.80;99.90
23237;DHT22;11787;52.018;8.570;2023-04-15T02:01:00;6.80;99.90
23237;DHT22;11787;52.018;8.570;2023-04-15T02:03:27;6.80;99.90
23237;DHT22;11787;52.018;8.570;2023-04-15T02:05:53;6.80;99.90
23237;DHT22;11787;52.018;8.570;2023-04-15T02:08:19;6.80;99.90
23237;DHT22;11787;52.018;8.570;2023-04-15T02:10:45;6.80;99.90
23237;DHT22;11787;52.018;8.570;2023-04-15T02:13:10;6.80;99.90
23237;DHT22;11787;52.018;8.570;2023-04-15T02:15:36;6.80;99.90
23237;DHT22;11787;52.018;8.570;2023-04-15T02:18:02;6.80;99.90
23237;DHT22;11787;52.018;8.570;2023-04-15T02:20:28;6.70;99.90
23237;DHT22;11787;52.018;8.570;2023-04-15T02:22:55;6.70;99.90
23237;DHT22;11787;52.018;8.570;2023-04-15T02:25:21;6.70;99.90
23237;DHT22;11787;52.018;8.570;2023-04-15T02:27:47;6.60;99.90
23237;DHT22;11787;52.018;8.570;2023-04-15T02:30:12;6.60;99.90
23237;DHT22;11787;52.018;8.570;2023-04-15T02:32:39;6.70;99.90
23237;DHT22;11787;52.018;8.570;2023-04-15T02:35:06;6.60;99.90
23237;DHT22;11787;52.018;8.570;2023-04-15T02:37:35;6.60;99.90
23237;DHT22;11787;52.018;8.570;2023-04-15T02:40:09;6.60;99.90
23237;DHT22;11787;52.018;8.570;2023-04-15T02:42:41;6.60;99.90
23237;DHT22;11787;52.018;8.570;2023-04-15T02:45:07;6.70;99.90
23237;DHT22;11787;52.018;8.570;2023-04-15T02:47:36;6.60;99.90
23237;DHT22;11787;52.018;8.570;2023-04-15T02:50:05;6.70;99.90
23237;DHT22;11787;52.018;8.570;2023-04-15T02:52:31;6.70;99.90
23237;DHT22;11787;52.018;8.570;2023-04-15T02:54:57;6.60;99.90
23237;DHT22;11787;52.018;8.570;2023-04-15T02:57:27;6.70;99.90
23237;DHT22;11787;52.018;8.570;2023-04-15T02:59:56;6.60;99.90
23237;DHT22;11787;52.018;8.570;2023-04-15T03:02:21;6.60;99.90
23237;DHT22;11787;52.018;8.570;2023-04-15T03:04:47;6.50;99.90
23237;DHT22;11787;52.018;8.570;2023-04-15T03:07:13;6.50;99.90
23237;DHT22;11787;52.018;8.570;2023-04-15T03:09:39;6.50;99.90
23237;DHT22;11787;52.018;8.570;2023-04-15T03:12:05;6.50;99.90
23237;DHT22;11787;52.018;8.570;2023-04-15T03:14:31;6.50;99.90
23237;DHT22;11787;52.018;8.570;2023-04-15T03:16:57;6.50;99.90
23237;DHT22;11787;52.018;8.570;2023-04-15T03:19:24;6.50;99.90
23237;DHT22;11787;52.018;8.570;2023-04-15T03:21:49;6.50;99.90
23237;DHT22;11787;52.018;8.570;2023-04-15T03:24:16;6.50;99.90
23237;DHT22;11787;52.018;8.570;2023-04-15T03:26:42;6.60;99.90
23237;DHT22;11787;52.018;8.570;2023-04-15T03:29:07;6.60;99.90
23237;DHT22;11787;52.018;8.570;2023-04-15T03:31:33;6.70;99.90
23237;DHT22;11787;52.018;8.570;2023-04-15T03:33:58;6.70;99.90
23237;DHT22;11787;52.018;8.570;2023-04-15T03:36:24;6.70;99.90
23237;DHT22;11787;52.018;8.570;2023-04-15T03:38:50;6.70;99.90
23237;DHT22;11787;52.018;8.570;2023-04-15T03:41:16;6.70;99.90
23237;DHT22;11787;52.018;8.570;2023-04-15T03:43:41;6.70;99.90
23237;DHT22;11787;52.018;8.570;2023-04-15T03:46:07;6.60;99.90
23237;DHT22;11787;52.018;8.570;2023-04-15T03:48:32;6.70;99.90
23237;DHT22;11787;52.018;8.570;2023-04-15T03:50:58;6.60;99.90
23237;DHT22;11787;52.018;8.570;2023-04-15T03:53:23;6.60;99.90
23237;DHT22;11787;52.018;8.570;2023-04-15T03:55:49;6.60;99.90
23237;DHT22;11787;52.018;8.570;2023-04-15T03:58:15;6.60;99.90
23237;DHT22;11787;52.018;8.570;2023-04-15T04:00:40;6.60;99.90
23237;DHT22;11787;52.018;8.570;2023-04-15T04:03:06;6.50;99.90
23237;DHT22;11787;52.018;8.570;2023-04-15T04:05:32;6.50;99.90
23237;DHT22;11787;52.018;8.570;2023-04-15T04:07:58;6.50;99.90
23237;DHT22;11787;52.018;8.570;2023-04-15T04:10:23;6.50;99.90
23237;DHT22;11787;52.018;8.570;2023-04-15T04:12:49;6.50;99.90
23237;DHT22;11787;52.018;8.570;2023-04-15T04:15:14;6.50;99.90
23237;DHT22;11787;52.018;8.570;2023-04-15T04:17:40;6.40;99.90
23237;DHT22;11787;52.018;8.570;2023-04-15T04:20:07;6.40;99.90
23237;DHT22;11787;52.018;8.570;2023-04-15T04:22:39;6.40;99.90
23237;DHT22;11787;52.018;8.570;2023-04-15T04:25:06;6.40;99.90
23237;DHT22;11787;52.018;8.570;2023-04-15T04:27:33;6.40;99.90
23237;DHT22;11787;52.018;8.570;2023-04-15T04:29:58;6.40;99.90
23237;DHT22;11787;52.018;8.570;2023-04-15T04:32:24;6.40;99.90
23237;DHT22;11787;52.018;8.570;2023-04-15T04:34:49;6.40;99.90
23237;DHT22;11787;52.018;8.570;2023-04-15T04:37:15;6.40;99.90
23237;DHT22;11787;52.018;8.570;2023-04-15T04:39:41;6.40;99.90
23237;DHT22;11787;52.018;8.570;2023-04-15T04:42:06;6.40;99.90
23237;DHT22;11787;52.018;8.570;2023-04-15T04:44:32;6.40;99.90
23237;DHT22;11787;52.018;8.570;2023-04-15T04:46:58;6.30;99.90
23237;DHT22;11787;52.018;8.570;2023-04-15T04:49:23;6.40;99.90
23237;DHT22;11787;52.018;8.570;2023-04-15T04:51:49;6.40;99.90
23237;DHT22;11787;52.018;8.570;2023-04-15T04:54:15;6.40;99.90
23237;DHT22;11787;52.018;8.570;2023-04-15T04:56:40;6.40;99.90
23237;DHT22;11787;52.018;8.570;2023-04-15T04:59:06;6.40;99.90
23237;DHT22;11787;52.018;8.570;2023-04-15T05:01:32;6.40;99.90
23237;DHT22;11787;52.018;8.570;2023-04-15T05:03:58;6.40;99.90
23237;DHT22;11787;52.018;8.570;2023-04-15T05:06:24;6.40;99.90
23237;DHT22;11787;52.018;8.570;2023-04-15T05:08:50;6.40;99.90
23237;DHT22;11787;52.018;8.570;2023-04-15T05:11:16;6.40;99.90
23237;DHT22;11787;52.018;8.570;2023-04-15T05:13:41;6.40;99.90
23237;DHT22;11787;52.018;8.570;2023-04-15T05:16:07;6.40;99.90
23237;DHT22;11787;52.018;8.570;2023-04-15T05:18:33;6.50;99.90
23237;DHT22;11787;52.018;8.570;2023-04-15T05:20:59;6.50;99.90
23237;DHT22;11787;52.018;8.570;2023-04-15T05:23:25;6.50;99.90
23237;DHT22;11787;52.018;8.570;2023-04-15T05:25:50;6.50;99.90
23237;DHT22;11787;52.018;8.570;2023-04-15T05:28:16;6.50;99.90
23237;DHT22;11787;52.018;8.570;2023-04-15T05:30:42;6.50;99.90
23237;DHT22;11787;52.018;8.570;2023-04-15T05:33:07;6.60;99.90
23237;DHT22;11787;52.018;8.570;2023-04-15T05:35:33;6.60;99.90
23237;DHT22;11787;52.018;8.570;2023-04-15T05:37:59;6.70;99.90
23237;DHT22;11787;52.018;8.570;2023-04-15T05:40:25;6.70;99.90
23237;DHT22;11787;52.018;8.570;2023-04-15T05:42:50;6.70;99.90
23237;DHT22;11787;52.018;8.570;2023-04-15T05:45:16;6.70;99.90
23237;DHT22;11787;52.018;8.570;2023-04-15T05:47:42;6.70;99.90
23237;DHT22;11787;52.018;8.570;2023-04-15T05:50:07;6.80;99.90
23237;DHT22;11787;52.018;8.570;2023-04-15T05:52:33;6.80;99.90
23237;DHT22;11787;52.018;8.570;2023-04-15T05:54:59;6.80;99.90
23237;DHT22;11787;52.018;8.570;2023-04-15T05:57:24;6.80;99.90
23237;DHT22;11787;52.018;8.570;2023-04-15T05:59:50;6.90;99.90
23237;DHT22;11787;52.018;8.570;2023-04-15T06:02:17;6.90;99.90
23237;DHT22;11787;52.018;8.570;2023-04-15T06:04:42;6.90;99.90
23237;DHT22;11787;52.018;8.570;2023-04-15T06:07:08;7.00;99.90
23237;DHT22;11787;52.018;8.570;2023-04-15T06:09:34;7.00;99.90
23237;DHT22;11787;52.018;8.570;2023-04-15T06:12:00;7.00;99.90
23237;DHT22;11787;52.018;8.570;2023-04-15T06:14:26;7.00;99.90
23237;DHT22;11787;52.018;8.570;2023-04-15T06:16:52;7.10;99.90
23237;DHT22;11787;52.018;8.570;2023-04-15T06:19:17;7.10;99.90
23237;DHT22;11787;52.018;8.570;2023-04-15T06:21:43;7.20;99.90
23237;DHT22;11787;52.018;8.570;2023-04-15T06:24:10;7.20;99.90
23237;DHT22;11787;52.018;8.570;2023-04-15T06:26:36;7.20;99.90
23237;DHT22;11787;52.018;8.570;2023-04-15T06:29:01;7.20;99.90
23237;DHT22;11787;52.018;8.570;2023-04-15T06:31:27;7.30;99.90
23237;DHT22;11787;52.018;8.570;2023-04-15T06:33:52;7.40;99.90
23237;DHT22;11787;52.018;8.570;2023-04-15T06:36:18;7.40;99.90
23237;DHT22;11787;52.018;8.570;2023-04-15T06:38:44;7.40;99.90
23237;DHT22;11787;52.018;8.570;2023-04-15T06:41:09;7.40;99.90
23237;DHT22;11787;52.018;8.570;2023-04-15T06:43:35;7.40;99.90
23237;DHT22;11787;52.018;8.570;2023-04-15T06:46:01;7.30;99.90
23237;DHT22;11787;52.018;8.570;2023-04-15T06:48:26;7.30;99.90
23237;DHT22;11787;52.018;8.570;2023-04-15T06:50:52;7.40;99.90
23237;DHT22;11787;52.018;8.570;2023-04-15T06:53:18;7.30;99.90
23237;DHT22;11787;52.018;8.570;2023-04-15T06:55:43;7.30;99.90
23237;DHT22;11787;52.018;8.570;2023-04-15T06:58:09;7.30;99.90
23237;DHT22;11787;52.018;8.570;2023-04-15T07:00:35;7.30;99.90
23237;DHT22;11787;52.018;8.570;2023-04-15T07:03:03;7.30;99.90
23237;DHT22;11787;52.018;8.570;2023-04-15T07:05:29;7.30;99.90
23237;DHT22;11787;52.018;8.570;2023-04-15T07:07:55;7.30;99.90
23237;DHT22;11787;52.018;8.570;2023-04-15T07:10:21;7.30;99.90
23237;DHT22;11787;52.018;8.570;2023-04-15T07:12:47;7.30;99.90
23237;DHT22;11787;52.018;8.570;2023-04-15T07:15:13;7.40;99.90
23237;DHT22;11787;52.018;8.570;2023-04-15T07:17:40;7.30;99.90
23237;DHT22;11787;52.018;8.570;2023-04-15T07:20:06;7.40;99.90
23237;DHT22;11787;52.018;8.570;2023-04-15T07:22:32;7.30;99.90
23237;DHT22;11787;52.018;8.570;2023-04-15T07:24:58;7.30;99.90
23237;DHT22;11787;52.018;8.570;2023-04-15T07:27:24;7.30;99.90
23237;DHT22;11787;52.018;8.570;2023-04-15T07:29:50;7.30;99.90
23237;DHT22;11787;52.018;8.570;2023-04-15T07:32:16;7.30;99.90
23237;DHT22;11787;52.018;8.570;2023-04-15T07:34:42;7.40;99.90
23237;DHT22;11787;52.018;8.570;2023-04-15T07:37:08;7.50;99.90
23237;DHT22;11787;52.018;8.570;2023-04-15T07:39:35;7.50;99.90
23237;DHT22;11787;52.018;8.570;2023-04-15T07:42:01;7.50;99.90
23237;DHT22;11787;52.018;8.570;2023-04-15T07:44:28;7.50;99.90
23237;DHT22;11787;52.018;8.570;2023-04-15T07:46:55;7.40;99.90
23237;DHT22;11787;52.018;8.570;2023-04-15T07:49:20;7.40;99.90
23237;DHT22;11787;52.018;8.570;2023-04-15T07:51:46;7.50;99.90
23237;DHT22;11787;52.018;8.570;2023-04-15T07:54:13;7.50;99.90
23237;DHT22;11787;52.018;8.570;2023-04-15T07:56:39;7.30;99.90
23237;DHT22;11787;52.018;8.570;2023-04-15T07:59:05;7.30;99.90
23237;DHT22;11787;52.018;8.570;2023-04-15T08:01:30;7.30;99.90
23237;DHT22;11787;52.018;8.570;2023-04-15T08:03:57;7.30;99.90
23237;DHT22;11787;52.018;8.570;2023-04-15T08:06:23;7.30;99.90
23237;DHT22;11787;52.018;8.570;2023-04-15T08:08:49;7.30;99.90
23237;DHT22;11787;52.018;8.570;2023-04-15T08:11:14;7.40;99.90
23237;DHT22;11787;52.018;8.570;2023-04-15T08:13:40;7.40;99.90
23237;DHT22;11787;52.018;8.570;2023-04-15T08:16:25;7.40;99.90
23237;DHT22;11787;52.018;8.570;2023-04-15T08:18:53;7.50;99.90
23237;DHT22;11787;52.018;8.570;2023-04-15T08:21:20;7.60;99.90
23237;DHT22;11787;52.018;8.570;2023-04-15T08:23:47;7.50;99.90
23237;DHT22;11787;52.018;8.570;2023-04-15T08:26:13;7.50;99.90
23237;DHT22;11787;52.018;8.570;2023-04-15T08:28:40;7.60;99.90
23237;DHT22;11787;52.018;8.570;2023-04-15T08:31:06;7.60;99.90
23237;DHT22;11787;52.018;8.570;2023-04-15T08:33:32;7.60;99.90
23237;DHT22;11787;52.018;8.570;2023-04-15T08:35:58;7.60;99.90
23237;DHT22;11787;52.018;8.570;2023-04-15T08:38:23;7.60;99.90
23237;DHT22;11787;52.018;8.570;2023-04-15T08:40:49;7.50;99.90
23237;DHT22;11787;52.018;8.570;2023-04-15T08:43:21;7.60;99.90
23237;DHT22;11787;52.018;8.570;2023-04-15T08:45:51;7.60;99.90
23237;DHT22;11787;52.018;8.570;2023-04-15T08:48:17;7.60;99.90
23237;DHT22;11787;52.018;8.570;2023-04-15T08:50:43;7.70;99.90
23237;DHT22;11787;52.018;8.570;2023-04-15T08:53:10;7.70;99.90
23237;DHT22;11787;52.018;8.570;2023-04-15T08:55:41;7.70;99.90
23237;DHT22;11787;52.018;8.570;2023-04-15T08:58:09;7.70;99.90
23237;DHT22;11787;52.018;8.570;2023-04-15T09:00:35;7.80;99.90
23237;DHT22;11787;52.018;8.570;2023-04-15T09:03:03;7.80;99.90
23237;DHT22;11787;52.018;8.570;2023-04-15T09:05:31;7.90;99.90
23237;DHT22;11787;52.018;8.570;2023-04-15T09:07:57;7.90;99.90
23237;DHT22;11787;52.018;8.570;2023-04-15T09:10:23;7.90;99.90
23237;DHT22;11787;52.018;8.570;2023-04-15T09:12:49;7.90;99.90
23237;DHT22;11787;52.018;8.570;2023-04-15T09:15:14;7.90;99.90
23237;DHT22;11787;52.018;8.570;2023-04-15T09:17:44;8.00;99.90
23237;DHT22;11787;52.018;8.570;2023-04-15T09:20:12;8.00;99.90
23237;DHT22;11787;52.018;8.570;2023-04-15T09:22:39;8.10;99.90
23237;DHT22;11787;52.018;8.570;2023-04-15T09:25:38;8.20;99.90
23237;DHT22;11787;52.018;8.570;2023-04-15T09:27:58;8.20;99.90
23237;DHT22;11787;52.018;8.570;2023-04-15T09:30:25;8.30;99.90
23237;DHT22;11787;52.018;8.570;2023-04-15T09:32:59;8.30;99.90
23237;DHT22;11787;52.018;8.570;2023-04-15T09:35:26;8.30;99.90
23237;DHT22;11787;52.018;8.570;2023-04-15T09:38:03;8.30;99.90
23237;DHT22;11787;52.018;8.570;2023-04-15T09:42:58;8.20;99.90
23237;DHT22;11787;52.018;8.570;2023-04-15T09:45:24;8.30;99.90
23237;DHT22;11787;52.018;8.570;2023-04-15T09:47:50;8.30;99.90
23237;DHT22;11787;52.018;8.570;2023-04-15T09:50:17;8.30;99.90
23237;DHT22;11787;52.018;8.570;2023-04-15T09:52:43;8.40;99.90
23237;DHT22;11787;52.018;8.570;2023-04-15T09:55:09;8.40;99.90
23237;DHT22;11787;52.018;8.570;2023-04-15T09:57:35;8.40;99.90
23237;DHT22;11787;52.018;8.570;2023-04-15T10:00:03;8.40;99.90
23237;DHT22;11787;52.018;8.570;2023-04-15T10:02:29;8.40;99.90
23237;DHT22;11787;52.018;8.570;2023-04-15T10:04:56;8.40;99.90
23237;DHT22;11787;52.018;8.570;2023-04-15T10:07:21;8.40;99.90
23237;DHT22;11787;52.018;8.570;2023-04-15T10:09:47;8.40;99.90
23237;DHT22;11787;52.018;8.570;2023-04-15T10:12:14;8.40;99.90
23237;DHT22;11787;52.018;8.570;2023-04-15T10:14:41;8.30;99.90
23237;DHT22;11787;52.018;8.570;2023-04-15T10:17:07;8.30;99.90
23237;DHT22;11787;52.018;8.570;2023-04-15T10:19:36;8.30;99.90
23237;DHT22;11787;52.018;8.570;2023-04-15T10:22:02;8.40;99.90
23237;DHT22;11787;52.018;8.570;2023-04-15T10:24:27;8.40;99.90
23237;DHT22;11787;52.018;8.570;2023-04-15T10:26:54;8.40;99.90
23237;DHT22;11787;52.018;8.570;2023-04-15T10:29:22;8.40;99.90
23237;DHT22;11787;52.018;8.570;2023-04-15T10:31:48;8.40;99.90
23237;DHT22;11787;52.018;8.570;2023-04-15T10:34:13;8.40;99.90
23237;DHT22;11787;52.018;8.570;2023-04-15T10:36:40;8.40;99.90
23237;DHT22;11787;52.018;8.570;2023-04-15T10:39:37;8.40;99.90
23237;DHT22;11787;52.018;8.570;2023-04-15T10:42:06;8.50;99.90
23237;DHT22;11787;52.018;8.570;2023-04-15T10:44:32;8.50;99.90
23237;DHT22;11787;52.018;8.570;2023-04-15T10:46:58;8.50;99.90
23237;DHT22;11787;52.018;8.570;2023-04-15T10:49:24;8.50;99.90
23237;DHT22;11787;52.018;8.570;2023-04-15T10:51:50;8.50;99.90
23237;DHT22;11787;52.018;8.570;2023-04-15T10:54:18;8.50;99.90
23237;DHT22;11787;52.018;8.570;2023-04-15T10:59:37;8.50;99.90
23237;DHT22;11787;52.018;8.570;2023-04-15T11:02:04;8.50;99.90
23237;DHT22;11787;52.018;8.570;2023-04-15T11:07:14;8.50;99.90
23237;DHT22;11787;52.018;8.570;2023-04-15T11:09:40;8.50;99.90
23237;DHT22;11787;52.018;8.570;2023-04-15T11:12:06;8.50;99.90
23237;DHT22;11787;52.018;8.570;2023-04-15T11:14:41;8.50;99.90
23237;DHT22;11787;52.018;8.570;2023-04-15T11:17:07;8.50;99.90
23237;DHT22;11787;52.018;8.570;2023-04-15T11:19:37;8.60;99.90
23237;DHT22;11787;52.018;8.570;2023-04-15T11:22:07;8.60;99.90
23237;DHT22;11787;52.018;8.570;2023-04-15T11:24:33;8.50;99.90
23237;DHT22;11787;52.018;8.570;2023-04-15T11:27:00;8.60;99.90
23237;DHT22;11787;52.018;8.570;2023-04-15T11:29:30;8.60;99.90
23237;DHT22;11787;52.018;8.570;2023-04-15T11:32:07;8.60;99.90
23237;DHT22;11787;52.018;8.570;2023-04-15T11:34:33;8.50;99.90
23237;DHT22;11787;52.018;8.570;2023-04-15T11:37:03;8.60;99.90
23237;DHT22;11787;52.018;8.570;2023-04-15T11:39:29;8.60;99.90
23237;DHT22;11787;52.018;8.570;2023-04-15T11:41:55;8.70;99.90
23237;DHT22;11787;52.018;8.570;2023-04-15T11:44:20;8.70;99.90
23237;DHT22;11787;52.018;8.570;2023-04-15T11:46:46;8.70;99.90
23237;DHT22;11787;52.018;8.570;2023-04-15T11:49:25;8.60;99.90
23237;DHT22;11787;52.018;8.570;2023-04-15T11:51:51;8.70;99.90
23237;DHT22;11787;52.018;8.570;2023-04-15T11:54:19;8.70;99.90
23237;DHT22;11787;52.018;8.570;2023-04-15T11:56:50;8.70;99.90
23237;DHT22;11787;52.018;8.570;2023-04-15T11:59:16;8.70;99.90
23237;DHT22;11787;52.018;8.570;2023-04-15T12:01:41;8.70;99.90
23237;DHT22;11787;52.018;8.570;2023-04-15T12:04:16;8.70;99.90
23237;DHT22;11787;52.018;8.570;2023-04-15T12:06:44;8.70;99.90
23237;DHT22;11787;52.018;8.570;2023-04-15T12:09:14;8.80;99.90
23237;DHT22;11787;52.018;8.570;2023-04-15T12:11:41;8.80;99.90
23237;DHT22;11787;52.018;8.570;2023-04-15T12:14:26;8.80;99.90
23237;DHT22;11787;52.018;8.570;2023-04-15T12:17:12;8.80;99.90
23237;DHT22;11787;52.018;8.570;2023-04-15T12:19:40;8.70;99.90
23237;DHT22;11787;52.018;8.570;2023-04-15T12:22:11;8.80;99.90
23237;DHT22;11787;52.018;8.570;2023-04-15T12:24:38;8.70;99.90
23237;DHT22;11787;52.018;8.570;2023-04-15T12:27:05;8.70;99.90
23237;DHT22;11787;52.018;8.570;2023-04-15T12:29:32;8.70;99.90
23237;DHT22;11787;52.018;8.570;2023-04-15T12:37:09;8.80;99.90
23237;DHT22;11787;52.018;8.570;2023-04-15T12:39:37;8.70;99.90
23237;DHT22;11787;52.018;8.570;2023-04-15T12:42:04;8.80;99.90
23237;DHT22;11787;52.018;8.570;2023-04-15T12:44:29;8.70;99.90
23237;DHT22;11787;52.018;8.570;2023-04-15T12:46:55;8.70;99.90
23237;DHT22;11787;52.018;8.570;2023-04-15T12:49:21;8.80;99.90
23237;DHT22;11787;52.018;8.570;2023-04-15T12:51:52;8.70;99.90
23237;DHT22;11787;52.018;8.570;2023-04-15T12:54:18;8.70;99.90
23237;DHT22;11787;52.018;8.570;2023-04-15T12:56:45;8.70;99.90
23237;DHT22;11787;52.018;8.570;2023-04-15T12:59:13;8.70;99.90
23237;DHT22;11787;52.018;8.570;2023-04-15T13:01:39;8.80;99.90
23237;DHT22;11787;52.018;8.570;2023-04-15T13:04:04;8.80;99.90
23237;DHT22;11787;52.018;8.570;2023-04-15T13:06:30;8.80;99.90
23237;DHT22;11787;52.018;8.570;2023-04-15T13:09:01;8.80;99.90
23237;DHT22;11787;52.018;8.570;2023-04-15T13:11:28;8.80;99.90
23237;DHT22;11787;52.018;8.570;2023-04-15T13:13:56;8.80;99.90
23237;DHT22;11787;52.018;8.570;2023-04-15T13:16:22;8.80;99.90
23237;DHT22;11787;52.018;8.570;2023-04-15T13:18:48;8.70;99.90
23237;DHT22;11787;52.018;8.570;2023-04-15T13:21:13;8.70;99.90
23237;DHT22;11787;52.018;8.570;2023-04-15T13:23:42;8.70;99.90
23237;DHT22;11787;52.018;8.570;2023-04-15T13:26:08;8.60;99.90
23237;DHT22;11787;52.018;8.570;2023-04-15T13:28:34;8.70;99.90
23237;DHT22;11787;52.018;8.570;2023-04-15T13:30:59;8.80;99.90
23237;DHT22;11787;52.018;8.570;2023-04-15T13:33:26;8.80;99.90
23237;DHT22;11787;52.018;8.570;2023-04-15T13:35:51;8.70;99.90
23237;DHT22;11787;52.018;8.570;2023-04-15T13:38:17;8.70;99.90
23237;DHT22;11787;52.018;8.570;2023-04-15T13:40:42;8.70;99.90
23237;DHT22;11787;52.018;8.570;2023-04-15T13:43:08;8.70;99.90
23237;DHT22;11787;52.018;8.570;2023-04-15T13:45:34;8.70;99.90
23237;DHT22;11787;52.018;8.570;2023-04-15T13:48:00;8.70;99.90
23237;DHT22;11787;52.018;8.570;2023-04-15T13:50:27;8.80;99.90
23237;DHT22;11787;52.018;8.570;2023-04-15T14:11:25;8.60;99.90
23237;DHT22;11787;52.018;8.570;2023-04-15T14:13:50;8.60;99.90
23237;DHT22;11787;52.018;8.570;2023-04-15T14:16:16;8.60;99.90
23237;DHT22;11787;52.018;8.570;2023-04-15T14:18:42;8.60;99.90
23237;DHT22;11787;52.018;8.570;2023-04-15T14:21:08;8.70;99.90
23237;DHT22;11787;52.018;8.570;2023-04-15T14:23:34;8.70;99.90
23237;DHT22;11787;52.018;8.570;2023-04-15T14:25:59;8.70;99.90
23237;DHT22;11787;52.018;8.570;2023-04-15T14:28:25;8.60;99.90
23237;DHT22;11787;52.018;8.570;2023-04-15T14:30:50;8.70;99.90
23237;DHT22;11787;52.018;8.570;2023-04-15T14:33:16;8.70;99.90
23237;DHT22;11787;52.018;8.570;2023-04-15T14:35:42;8.80;99.90
23237;DHT22;11787;52.018;8.570;2023-04-15T14:38:07;8.70;99.90
23237;DHT22;11787;52.018;8.570;2023-04-15T14:40:35;8.80;99.90
23237;DHT22;11787;52.018;8.570;2023-04-15T14:43:01;8.80;99.90
23237;DHT22;11787;52.018;8.570;2023-04-15T14:45:27;8.80;99.90
23237;DHT22;11787;52.018;8.570;2023-04-15T14:47:54;8.80;99.90
23237;DHT22;11787;52.018;8.570;2023-04-15T14:50:20;8.80;99.90
23237;DHT22;11787;52.018;8.570;2023-04-15T14:52:46;8.80;99.90
23237;DHT22;11787;52.018;8.570;2023-04-15T14:55:12;8.80;99.90
23237;DHT22;11787;52.018;8.570;2023-04-15T14:57:38;8.80;99.90
23237;DHT22;11787;52.018;8.570;2023-04-15T15:00:05;8.80;99.90
23237;DHT22;11787;52.018;8.570;2023-04-15T15:02:32;8.90;99.90
23237;DHT22;11787;52.018;8.570;2023-04-15T15:04:59;8.90;99.90
23237;DHT22;11787;52.018;8.570;2023-04-15T15:07:25;9.00;99.90
23237;DHT22;11787;52.018;8.570;2023-04-15T15:09:51;8.90;99.90
23237;DHT22;11787;52.018;8.570;2023-04-15T15:12:17;8.90;99.90
23237;DHT22;11787;52.018;8.570;2023-04-15T15:14:42;8.90;99.90
23237;DHT22;11787;52.018;8.570;2023-04-15T15:17:08;8.90;99.90
23237;DHT22;11787;52.018;8.570;2023-04-15T15:19:34;8.90;99.90
23237;DHT22;11787;52.018;8.570;2023-04-15T15:22:00;9.00;99.90
23237;DHT22;11787;52.018;8.570;2023-04-15T15:24:26;9.00;99.90
23237;DHT22;11787;52.018;8.570;2023-04-15T15:26:51;9.00;99.90
23237;DHT22;11787;52.018;8.570;2023-04-15T15:29:17;9.00;99.90
23237;DHT22;11787;52.018;8.570;2023-04-15T15:31:42;9.10;99.90
23237;DHT22;11787;52.018;8.570;2023-04-15T15:34:08;9.10;99.90
23237;DHT22;11787;52.018;8.570;2023-04-15T15:36:34;9.10;99.90
23237;DHT22;11787;52.018;8.570;2023-04-15T15:38:59;9.00;99.90
23237;DHT22;11787;52.018;8.570;2023-04-15T15:41:25;9.10;99.90
23237;DHT22;11787;52.018;8.570;2023-04-15T15:43:52;9.10;99.90
23237;DHT22;11787;52.018;8.570;2023-04-15T15:46:17;9.10;99.90
23237;DHT22;11787;52.018;8.570;2023-04-15T15:48:43;9.10;99.90
23237;DHT22;11787;52.018;8.570;2023-04-15T15:51:09;9.10;99.90
23237;DHT22;11787;52.018;8.570;2023-04-15T15:53:34;9.10;99.90
23237;DHT22;11787;52.018;8.570;2023-04-15T15:56:00;9.10;99.90
23237;DHT22;11787;52.018;8.570;2023-04-15T15:58:29;9.10;99.90
23237;DHT22;11787;52.018;8.570;2023-04-15T16:00:54;9.10;99.90
23237;DHT22;11787;52.018;8.570;2023-04-15T16:03:21;9.20;99.90
23237;DHT22;11787;52.018;8.570;2023-04-15T16:05:46;9.20;99.90
23237;DHT22;11787;52.018;8.570;2023-04-15T16:08:12;9.30;99.90
23237;DHT22;11787;52.018;8.570;2023-04-15T16:10:37;9.20;99.90
23237;DHT22;11787;52.018;8.570;2023-04-15T16:13:03;9.20;99.90